Time;durP1;ratioP1;P1;durP2;ratioP2;P2;SDS_P1;SDS_P2;PMS_P1;PMS_P2;Temp;Humidity;BMP_temperature;BMP_pressure;BME280_temperature;BME280_humidity;BME280_pressure;Samples;Min_cycle;Max_cycle;Signal;HPM_P1;HPM_P2
2022/03/16 00:00:19;;;;;;;35.10;21.15;;;4.30;99.90;;;;;;5008201;28;20075;-83
2022/03/16 00:02:45;;;;;;;34.28;20.13;;;4.30;99.90;;;;;;5014082;28;20061;-83
2022/03/16 00:05:13;;;;;;;32.83;19.38;;;4.20;99.90;;;;;;5023421;28;20520;-83
2022/03/16 00:07:38;;;;;;;29.60;18.52;;;4.20;99.90;;;;;;5009632;28;20550;-83
2022/03/16 00:10:07;;;;;;;31.65;18.23;;;4.20;99.90;;;;;;5009499;28;20049;-83
2022/03/16 00:12:33;;;;;;;28.35;16.67;;;4.10;99.90;;;;;;5007851;28;20054;-83
2022/03/16 00:14:59;;;;;;;33.70;19.10;;;4.10;99.90;;;;;;5003489;28;20042;-83
2022/03/16 00:17:25;;;;;;;33.40;20.92;;;4.10;99.90;;;;;;5011268;28;20045;-83
2022/03/16 00:19:51;;;;;;;30.95;19.65;;;4.10;99.90;;;;;;5040270;28;20425;-84
2022/03/16 00:22:16;;;;;;;30.98;17.33;;;4.10;99.90;;;;;;5022913;28;21218;-83
2022/03/16 00:24:42;;;;;;;33.47;19.65;;;4.10;99.90;;;;;;5030480;28;20125;-83
2022/03/16 00:27:08;;;;;;;31.48;17.98;;;4.10;99.90;;;;;;5006510;28;20045;-83
2022/03/16 00:29:33;;;;;;;31.25;17.60;;;4.10;99.90;;;;;;5027990;28;20492;-83
2022/03/16 00:31:59;;;;;;;25.55;15.00;;;4.00;99.90;;;;;;5006794;28;20490;-83
2022/03/16 00:34:25;;;;;;;27.25;16.70;;;4.00;99.90;;;;;;5008086;28;20097;-83
2022/03/16 00:36:51;;;;;;;25.98;15.35;;;3.90;99.90;;;;;;5030636;28;20446;-83
2022/03/16 00:39:16;;;;;;;29.27;17.38;;;3.90;99.90;;;;;;5008336;28;20080;-84
2022/03/16 00:41:42;;;;;;;25.02;16.20;;;3.80;99.90;;;;;;5010360;28;20109;-83
2022/03/16 00:44:07;;;;;;;26.30;15.82;;;3.80;99.90;;;;;;5028721;28;20034;-84
2022/03/16 00:46:33;;;;;;;22.70;14.07;;;3.80;99.90;;;;;;5048582;28;20076;-83
2022/03/16 00:48:59;;;;;;;25.67;14.90;;;3.80;99.90;;;;;;5027240;28;20044;-83
2022/03/16 00:51:25;;;;;;;25.75;16.35;;;3.80;99.90;;;;;;5009365;28;20049;-83
2022/03/16 00:53:50;;;;;;;25.65;16.00;;;3.70;99.90;;;;;;5006364;28;20038;-83
2022/03/16 00:56:16;;;;;;;22.88;14.77;;;3.70;99.90;;;;;;4991041;28;20042;-83
2022/03/16 00:58:42;;;;;;;24.77;14.32;;;3.70;99.90;;;;;;5006759;28;20387;-84
2022/03/16 01:01:07;;;;;;;23.20;15.15;;;3.60;99.90;;;;;;5049637;28;20456;-83
2022/03/16 01:03:34;;;;;;;19.95;12.82;;;3.70;99.90;;;;;;5004538;28;20049;-83
2022/03/16 01:06:00;;;;;;;22.48;12.82;;;3.60;99.90;;;;;;5007255;28;20094;-83
2022/03/16 01:08:26;;;;;;;25.42;15.20;;;3.60;99.90;;;;;;5009510;28;20143;-83
2022/03/16 01:10:52;;;;;;;28.35;16.95;;;3.60;99.90;;;;;;5067657;28;20114;-83
2022/03/16 01:13:17;;;;;;;34.30;20.40;;;3.60;99.90;;;;;;5003200;28;20053;-83
2022/03/16 01:15:43;;;;;;;36.80;21.13;;;3.60;99.90;;;;;;5000250;28;20049;-83
2022/03/16 01:18:08;;;;;;;36.97;20.40;;;3.70;99.90;;;;;;5024341;28;20164;-83
2022/03/16 01:20:34;;;;;;;35.80;21.33;;;3.70;99.90;;;;;;5006584;28;20049;-84
2022/03/16 01:23:00;;;;;;;41.22;22.20;;;3.70;99.90;;;;;;5049873;28;20034;-83
2022/03/16 01:25:25;;;;;;;40.72;23.83;;;3.80;99.90;;;;;;5024335;28;20038;-83
2022/03/16 01:27:51;;;;;;;44.83;24.48;;;3.80;99.90;;;;;;5007402;28;20045;-84
2022/03/16 01:30:17;;;;;;;41.85;23.20;;;3.80;99.90;;;;;;5002929;28;20046;-84
2022/03/16 01:32:43;;;;;;;43.47;22.98;;;3.90;99.90;;;;;;5004772;28;20405;-83
2022/03/16 01:35:10;;;;;;;51.28;27.15;;;3.90;99.90;;;;;;5027351;28;20075;-83
2022/03/16 01:37:36;;;;;;;48.95;26.10;;;3.90;99.90;;;;;;5027807;28;20038;-83
2022/03/16 01:40:04;;;;;;;49.80;25.05;;;3.90;99.90;;;;;;5004388;28;20038;-84
2022/03/16 01:42:29;;;;;;;44.03;23.77;;;3.90;99.90;;;;;;5019281;28;20036;-83
2022/03/16 01:44:58;;;;;;;42.00;24.38;;;3.90;99.90;;;;;;5053748;28;20104;-82
2022/03/16 01:47:25;;;;;;;43.75;24.48;;;3.90;99.90;;;;;;5009505;28;20029;-84
2022/03/16 01:49:53;;;;;;;44.90;26.65;;;3.90;99.90;;;;;;5004356;28;20132;-83
2022/03/16 01:52:22;;;;;;;44.00;25.45;;;4.00;99.90;;;;;;5008811;28;20382;-82
2022/03/16 01:54:48;;;;;;;46.10;25.98;;;4.00;99.90;;;;;;5009533;28;20042;-83
2022/03/16 01:57:15;;;;;;;41.78;24.45;;;4.00;99.90;;;;;;4991839;28;20398;-83
2022/03/16 01:59:42;;;;;;;42.97;23.83;;;4.00;99.90;;;;;;5010220;28;20502;-84
2022/03/16 02:02:09;;;;;;;39.08;22.05;;;4.00;99.90;;;;;;5012725;28;20077;-84
2022/03/16 02:04:34;;;;;;;43.85;23.08;;;4.00;99.90;;;;;;5014335;28;20446;-84
2022/03/16 02:07:00;;;;;;;50.03;25.95;;;3.90;99.90;;;;;;5007876;28;20141;-84
2022/03/16 02:09:26;;;;;;;42.20;24.88;;;3.90;99.90;;;;;;5027401;28;20038;-84
2022/03/16 02:11:52;;;;;;;45.90;24.98;;;3.90;99.90;;;;;;5007811;28;20049;-84
2022/03/16 02:14:18;;;;;;;49.10;26.83;;;3.90;99.90;;;;;;5007822;28;20409;-84
2022/03/16 02:16:44;;;;;;;41.97;23.08;;;3.90;99.90;;;;;;5015404;28;20132;-84
2022/03/16 02:19:10;;;;;;;46.47;25.33;;;3.90;99.90;;;;;;5046876;28;20381;-84
2022/03/16 02:21:37;;;;;;;43.08;24.42;;;3.90;99.90;;;;;;5012338;28;20054;-84
2022/03/16 02:24:04;;;;;;;41.97;23.20;;;3.90;99.90;;;;;;4995575;28;20049;-84
2022/03/16 02:26:30;;;;;;;41.45;24.05;;;3.90;99.90;;;;;;5010004;28;20057;-84
2022/03/16 02:28:57;;;;;;;51.60;28.58;;;3.80;99.90;;;;;;5001950;28;20486;-84
2022/03/16 02:31:22;;;;;;;50.20;27.48;;;3.80;99.90;;;;;;5062820;28;20055;-85
2022/03/16 02:33:48;;;;;;;43.83;24.50;;;3.90;99.90;;;;;;5060915;28;21746;-84
2022/03/16 02:36:14;;;;;;;45.83;24.27;;;3.80;99.90;;;;;;5025470;28;20079;-84
2022/03/16 02:38:40;;;;;;;46.60;27.13;;;3.80;99.90;;;;;;5042805;28;20195;-84
2022/03/16 02:41:05;;;;;;;41.22;24.25;;;3.80;99.90;;;;;;5028652;28;20065;-84
2022/03/16 02:43:31;;;;;;;37.70;22.88;;;3.70;99.90;;;;;;5047246;28;20055;-84
2022/03/16 02:45:56;;;;;;;41.65;22.38;;;3.60;99.90;;;;;;5028342;28;20067;-84
2022/03/16 02:48:22;;;;;;;44.03;22.88;;;3.60;99.90;;;;;;5020876;28;20385;-84
2022/03/16 02:50:48;;;;;;;39.53;22.95;;;3.60;99.90;;;;;;5052884;28;20039;-84
2022/03/16 02:53:15;;;;;;;38.67;22.05;;;3.50;99.90;;;;;;5017791;28;20126;-84
2022/03/16 02:55:41;;;;;;;38.47;21.30;;;3.40;99.90;;;;;;5034088;28;20054;-84
2022/03/16 02:58:08;;;;;;;57.28;25.98;;;3.40;99.90;;;;;;5008215;28;20053;-84
2022/03/16 03:00:34;;;;;;;35.17;19.73;;;3.40;99.90;;;;;;5025262;28;20057;-84
2022/03/16 03:02:59;;;;;;;44.00;24.95;;;3.30;99.90;;;;;;5012761;28;20129;-84
2022/03/16 03:05:25;;;;;;;42.33;23.63;;;3.30;99.90;;;;;;5014032;28;20317;-84
2022/03/16 03:07:51;;;;;;;40.72;22.13;;;3.30;99.90;;;;;;5013647;28;20042;-84
2022/03/16 03:10:16;;;;;;;32.88;20.48;;;3.30;99.90;;;;;;5020581;28;20034;-84
2022/03/16 03:12:42;;;;;;;45.47;22.90;;;3.20;99.90;;;;;;5010513;28;20073;-84
2022/03/16 03:15:13;;;;;;;38.28;22.58;;;3.20;99.90;;;;;;5039203;28;20052;-84
2022/03/16 03:17:39;;;;;;;44.75;23.88;;;3.20;99.90;;;;;;5068364;28;20542;-85
2022/03/16 03:20:05;;;;;;;43.78;22.27;;;3.20;99.90;;;;;;5007662;28;20133;-85
2022/03/16 03:22:31;;;;;;;43.92;21.40;;;3.10;99.90;;;;;;5005021;28;20041;-84
2022/03/16 03:24:57;;;;;;;76.53;24.33;;;3.10;99.90;;;;;;5061571;28;20043;-84
2022/03/16 03:27:23;;;;;;;84.28;21.85;;;3.10;99.90;;;;;;5020914;28;20042;-84
2022/03/16 03:29:49;;;;;;;45.83;18.27;;;3.10;99.90;;;;;;5058872;28;20046;-84
2022/03/16 03:32:15;;;;;;;144.65;24.27;;;3.00;99.90;;;;;;5008322;28;20037;-84
2022/03/16 03:34:45;;;;;;;77.47;18.25;;;2.90;99.90;;;;;;5009416;28;20556;-84
2022/03/16 03:37:12;;;;;;;163.13;29.70;;;2.80;99.90;;;;;;5019932;28;20387;-84
2022/03/16 03:39:38;;;;;;;98.32;22.00;;;2.60;99.90;;;;;;5007890;28;20052;-84
2022/03/16 03:42:04;;;;;;;126.78;22.63;;;2.50;99.90;;;;;;5028528;28;20046;-84
2022/03/16 03:44:29;;;;;;;102.65;19.92;;;2.40;99.90;;;;;;5006574;28;20074;-84
2022/03/16 03:46:55;;;;;;;102.05;20.95;;;2.30;99.90;;;;;;5007775;28;20079;-84
2022/03/16 03:49:20;;;;;;;53.20;17.17;;;2.20;99.90;;;;;;5009087;28;20050;-84
2022/03/16 03:51:46;;;;;;;70.82;18.20;;;2.20;99.90;;;;;;5002400;28;20429;-84
2022/03/16 03:54:12;;;;;;;97.72;19.88;;;2.10;99.90;;;;;;5011940;28;20083;-84
2022/03/16 03:56:37;;;;;;;111.97;20.98;;;2.10;99.90;;;;;;5007953;28;20053;-85
2022/03/16 03:59:03;;;;;;;115.57;21.95;;;2.10;99.90;;;;;;5055485;28;20514;-84
2022/03/16 04:01:28;;;;;;;68.30;19.05;;;2.10;99.90;;;;;;5030735;27;20103;-84
2022/03/16 04:03:54;;;;;;;34.72;17.52;;;2.10;99.90;;;;;;5007323;28;20053;-84
2022/03/16 04:06:19;;;;;;;32.38;19.88;;;2.10;99.90;;;;;;5023554;28;20068;-84
2022/03/16 04:08:45;;;;;;;32.20;17.58;;;2.20;99.90;;;;;;5009205;28;20474;-84
2022/03/16 04:11:11;;;;;;;32.60;19.08;;;2.20;99.90;;;;;;5019902;28;20506;-84
2022/03/16 04:13:37;;;;;;;24.48;15.38;;;2.20;99.90;;;;;;5010755;28;20517;-85
2022/03/16 04:16:03;;;;;;;22.77;15.25;;;2.20;99.90;;;;;;5006349;28;20037;-84
2022/03/16 04:18:29;;;;;;;25.08;15.35;;;2.10;99.90;;;;;;5014391;28;20052;-84
2022/03/16 04:20:55;;;;;;;28.73;17.48;;;2.10;99.90;;;;;;5008131;28;20037;-84
2022/03/16 04:23:21;;;;;;;33.28;18.63;;;2.10;99.90;;;;;;5014414;28;20050;-84
2022/03/16 04:25:47;;;;;;;27.77;16.17;;;2.10;99.90;;;;;;4989635;28;20114;-84
2022/03/16 04:28:12;;;;;;;23.92;15.85;;;2.10;99.90;;;;;;5005178;28;20038;-84
2022/03/16 04:30:38;;;;;;;27.38;17.58;;;2.20;99.90;;;;;;5006634;28;20045;-84
2022/03/16 04:33:04;;;;;;;31.90;19.67;;;2.10;99.90;;;;;;5004310;28;20162;-84
2022/03/16 04:35:30;;;;;;;29.77;17.33;;;2.20;99.90;;;;;;5044397;28;20414;-84
2022/03/16 04:37:55;;;;;;;32.58;20.63;;;2.10;99.90;;;;;;5023526;28;20075;-84
2022/03/16 04:40:21;;;;;;;29.73;18.15;;;2.20;99.90;;;;;;5008097;28;20073;-84
2022/03/16 04:42:47;;;;;;;31.13;19.02;;;2.20;99.90;;;;;;5007214;28;20068;-84
2022/03/16 04:45:13;;;;;;;41.47;22.90;;;2.30;99.90;;;;;;5046907;28;20104;-84
2022/03/16 04:47:39;;;;;;;35.92;20.60;;;2.30;99.90;;;;;;5058492;28;20083;-84
2022/03/16 04:50:05;;;;;;;32.08;19.13;;;2.40;99.90;;;;;;5005796;28;20351;-84
2022/03/16 04:52:31;;;;;;;32.75;19.75;;;2.40;99.90;;;;;;5053263;28;20046;-83
2022/03/16 04:54:57;;;;;;;36.33;20.73;;;2.40;99.90;;;;;;5023092;28;20057;-85
2022/03/16 04:57:22;;;;;;;37.55;21.35;;;2.40;99.90;;;;;;5012534;28;20363;-84
2022/03/16 04:59:48;;;;;;;39.40;21.50;;;2.50;99.90;;;;;;5008317;28;20034;-84
2022/03/16 05:02:13;;;;;;;41.85;22.42;;;2.50;99.90;;;;;;5028797;28;20065;-84
2022/03/16 05:04:39;;;;;;;36.35;20.60;;;2.50;99.90;;;;;;5005506;28;20038;-84
2022/03/16 05:07:04;;;;;;;34.05;19.33;;;2.50;99.90;;;;;;5018644;28;20492;-84
2022/03/16 05:09:30;;;;;;;31.38;19.58;;;2.60;99.90;;;;;;5007202;28;20383;-84
2022/03/16 05:11:55;;;;;;;42.65;23.23;;;2.50;99.90;;;;;;5003005;28;20401;-84
2022/03/16 05:14:21;;;;;;;31.33;18.75;;;2.50;99.90;;;;;;5004172;28;20076;-84
2022/03/16 05:16:47;;;;;;;38.10;22.08;;;2.50;99.90;;;;;;5013347;28;20107;-84
2022/03/16 05:19:12;;;;;;;32.40;20.35;;;2.50;99.90;;;;;;4990157;28;20554;-84
2022/03/16 05:21:38;;;;;;;41.33;23.15;;;2.50;99.90;;;;;;5007800;28;20054;-84
2022/03/16 05:24:04;;;;;;;41.10;23.70;;;2.50;99.90;;;;;;5008374;28;20087;-84
2022/03/16 05:26:30;;;;;;;35.63;22.35;;;2.50;99.90;;;;;;4999379;28;20128;-85
2022/03/16 05:28:56;;;;;;;37.60;21.95;;;2.50;99.90;;;;;;5009828;28;20643;-84
2022/03/16 05:31:22;;;;;;;40.40;22.30;;;2.60;99.90;;;;;;5008804;28;20054;-84
2022/03/16 05:33:49;;;;;;;41.65;23.83;;;2.60;99.90;;;;;;5011432;28;20060;-85
2022/03/16 05:36:16;;;;;;;41.63;22.90;;;2.70;99.90;;;;;;5008884;28;20045;-85
2022/03/16 05:38:41;;;;;;;42.65;23.85;;;2.70;99.90;;;;;;5007077;28;20058;-85
2022/03/16 05:41:07;;;;;;;35.97;20.70;;;2.80;99.90;;;;;;5022072;28;20451;-85
2022/03/16 05:43:33;;;;;;;35.58;22.70;;;2.80;99.90;;;;;;5024541;28;20418;-86
2022/03/16 05:45:58;;;;;;;43.53;23.05;;;2.80;99.90;;;;;;5018188;28;20049;-85
2022/03/16 05:48:24;;;;;;;36.60;20.77;;;2.80;99.90;;;;;;5075161;28;20047;-86
2022/03/16 05:50:49;;;;;;;35.40;20.98;;;2.80;99.90;;;;;;5026905;28;20747;-85
2022/03/16 05:53:15;;;;;;;36.40;21.15;;;2.80;99.90;;;;;;5040744;28;20039;-85
2022/03/16 05:55:41;;;;;;;34.28;20.35;;;2.80;99.90;;;;;;5011594;28;20179;-85
2022/03/16 05:58:07;;;;;;;26.40;16.45;;;2.80;99.90;;;;;;5052556;28;20042;-85
2022/03/16 06:00:33;;;;;;;25.77;16.98;;;2.80;99.90;;;;;;5038581;28;20223;-86
2022/03/16 06:02:59;;;;;;;26.42;17.55;;;2.80;99.90;;;;;;5006315;28;20474;-85
2022/03/16 06:05:25;;;;;;;28.73;16.70;;;2.70;99.90;;;;;;5023251;28;20130;-85
2022/03/16 06:07:50;;;;;;;28.92;18.27;;;2.70;99.90;;;;;;5028431;28;20041;-85
2022/03/16 06:10:17;;;;;;;28.40;19.23;;;2.80;99.90;;;;;;5001124;28;20099;-86
2022/03/16 06:13:09;;;;;;;30.10;18.98;;;2.80;99.90;;;;;;5011962;28;20390;-86
2022/03/16 06:15:43;;;;;;;31.67;20.13;;;2.90;99.90;;;;;;5061465;28;20281;-85
2022/03/16 06:18:09;;;;;;;34.20;20.98;;;2.90;99.90;;;;;;5037709;28;20447;-87
2022/03/16 06:20:35;;;;;;;36.28;21.30;;;3.00;99.90;;;;;;5010016;28;20052;-87
2022/03/16 06:23:04;;;;;;;34.95;20.23;;;3.00;99.90;;;;;;5013633;28;20394;-87
2022/03/16 06:25:30;;;;;;;31.73;19.80;;;3.10;99.90;;;;;;5099916;28;20059;-87
2022/03/16 06:27:55;;;;;;;42.13;25.25;;;3.10;99.90;;;;;;5045121;28;20049;-87
2022/03/16 06:30:21;;;;;;;44.38;26.98;;;3.20;99.90;;;;;;5058683;28;20050;-87
2022/03/16 06:32:47;;;;;;;46.35;27.35;;;3.30;99.90;;;;;;5075983;28;20040;-88
2022/03/16 06:35:14;;;;;;;44.78;28.45;;;3.40;99.90;;;;;;5110320;28;20393;-88
2022/03/16 06:37:41;;;;;;;38.97;24.65;;;3.50;99.90;;;;;;5044176;28;20372;-88
2022/03/16 06:40:07;;;;;;;43.13;26.50;;;3.60;99.90;;;;;;5076826;28;20042;-87
2022/03/16 06:42:33;;;;;;;40.55;25.30;;;3.60;99.90;;;;;;5035182;28;20038;-89
2022/03/16 06:44:58;;;;;;;47.13;26.50;;;3.70;99.90;;;;;;5026763;28;20267;-86
2022/03/16 06:47:24;;;;;;;38.67;23.63;;;3.90;99.90;;;;;;5010512;28;20489;-86
2022/03/16 06:49:49;;;;;;;41.13;25.58;;;3.90;99.90;;;;;;5061129;28;20047;-86
2022/03/16 06:52:15;;;;;;;42.45;27.08;;;4.00;99.90;;;;;;5060198;28;20137;-86
2022/03/16 06:54:41;;;;;;;38.15;24.90;;;4.10;99.90;;;;;;5083102;28;20047;-87
2022/03/16 06:57:06;;;;;;;47.08;28.25;;;4.10;99.90;;;;;;5047312;28;20096;-87
2022/03/16 06:59:32;;;;;;;47.38;31.20;;;4.30;99.90;;;;;;5054827;28;20379;-88
2022/03/16 07:01:57;;;;;;;45.22;30.02;;;4.30;99.90;;;;;;5012376;28;20450;-87
2022/03/16 07:04:23;;;;;;;46.55;29.13;;;4.40;99.90;;;;;;5076287;28;20102;-86
2022/03/16 07:06:50;;;;;;;49.08;31.17;;;4.50;99.90;;;;;;5008571;28;20531;-87
2022/03/16 07:09:16;;;;;;;47.95;27.88;;;4.60;99.90;;;;;;5008918;28;20043;-87
2022/03/16 07:11:41;;;;;;;42.53;26.70;;;4.70;99.90;;;;;;5033175;28;20095;-87
2022/03/16 07:16:51;;;;;;;48.42;29.42;;;4.80;99.90;;;;;;5008068;28;20050;-86
2022/03/16 07:19:17;;;;;;;48.08;28.73;;;4.90;99.90;;;;;;5036847;28;20037;-86
2022/03/16 07:21:42;;;;;;;46.35;27.77;;;5.00;99.90;;;;;;5037979;28;20036;-86
2022/03/16 07:24:08;;;;;;;48.47;30.17;;;5.10;99.90;;;;;;5025909;28;20450;-85
2022/03/16 07:26:34;;;;;;;42.92;29.17;;;5.20;99.90;;;;;;5044170;28;20102;-86
2022/03/16 07:28:59;;;;;;;47.03;28.23;;;5.20;99.90;;;;;;5081699;28;20038;-86
2022/03/16 07:31:25;;;;;;;41.50;29.08;;;5.40;99.90;;;;;;5013266;28;20043;-86
2022/03/16 07:33:50;;;;;;;44.80;26.67;;;5.40;99.90;;;;;;5008904;28;20050;-86
2022/03/16 07:36:16;;;;;;;46.10;28.02;;;5.50;99.90;;;;;;5009719;28;20041;-86
2022/03/16 07:38:42;;;;;;;47.22;31.33;;;5.60;99.90;;;;;;5008970;28;20059;-87
2022/03/16 07:41:07;;;;;;;44.25;28.20;;;5.80;99.90;;;;;;5073320;28;20117;-86
2022/03/16 07:43:33;;;;;;;43.58;26.00;;;5.90;99.90;;;;;;5075138;28;20043;-85
2022/03/16 07:45:58;;;;;;;42.55;25.73;;;6.00;99.90;;;;;;5079328;28;20051;-86
2022/03/16 07:48:24;;;;;;;43.47;28.42;;;6.00;99.90;;;;;;5035371;28;20048;-86
2022/03/16 07:50:53;;;;;;;43.75;28.67;;;6.10;99.90;;;;;;5094431;28;20127;-86
2022/03/16 07:53:18;;;;;;;42.50;29.77;;;6.20;99.90;;;;;;5057242;28;20036;-86
2022/03/16 07:55:48;;;;;;;40.85;30.15;;;6.30;99.90;;;;;;5032613;28;20420;-87
2022/03/16 07:58:13;;;;;;;41.08;28.30;;;6.40;99.90;;;;;;5083218;28;20480;-85
2022/03/16 08:00:39;;;;;;;41.65;27.77;;;6.50;99.90;;;;;;5052534;28;20118;-85
2022/03/16 08:03:05;;;;;;;42.67;30.17;;;6.50;99.90;;;;;;5008332;28;20111;-86
2022/03/16 08:05:31;;;;;;;40.22;28.98;;;6.60;99.90;;;;;;5034797;28;20043;-84
2022/03/16 08:07:57;;;;;;;39.72;28.67;;;6.70;99.90;;;;;;5034286;28;20037;-85
2022/03/16 08:10:23;;;;;;;42.85;30.92;;;6.80;99.90;;;;;;5041100;28;20054;-89
2022/03/16 08:12:48;;;;;;;46.10;29.15;;;6.80;99.90;;;;;;5009261;28;20496;-86
2022/03/16 08:15:14;;;;;;;39.75;29.45;;;7.00;99.90;;;;;;5073643;28;20053;-86
2022/03/16 08:17:39;;;;;;;42.55;37.75;;;7.00;99.90;;;;;;5050600;28;20068;-86
2022/03/16 08:20:06;;;;;;;35.45;26.70;;;7.20;99.90;;;;;;5029696;28;20445;-86
2022/03/16 08:22:33;;;;;;;38.10;34.00;;;7.20;99.90;;;;;;5087501;28;20031;-85
2022/03/16 08:25:01;;;;;;;36.65;28.25;;;7.40;99.90;;;;;;5080342;28;20051;-87
2022/03/16 08:27:26;;;;;;;37.67;26.25;;;7.40;99.90;;;;;;5031333;28;20121;-87
2022/03/16 08:29:53;;;;;;;34.90;26.33;;;7.50;99.90;;;;;;5066043;28;20127;-87
2022/03/16 08:32:19;;;;;;;37.83;27.77;;;7.60;99.90;;;;;;5099496;28;20183;-88
2022/03/16 08:34:45;;;;;;;37.17;33.17;;;7.70;99.90;;;;;;5056952;28;20058;-89
2022/03/16 08:37:11;;;;;;;38.55;28.80;;;7.80;99.90;;;;;;5098668;28;20043;-87
2022/03/16 08:39:37;;;;;;;38.13;33.88;;;7.90;99.90;;;;;;5008070;28;20038;-88
2022/03/16 08:42:04;;;;;;;37.20;33.20;;;8.00;99.90;;;;;;5051153;28;20062;-87
2022/03/16 08:44:31;;;;;;;35.75;31.95;;;8.10;99.90;;;;;;5028363;28;20075;-86
2022/03/16 08:46:57;;;;;;;35.60;31.67;;;8.20;99.90;;;;;;5091212;28;20058;-86
2022/03/16 08:49:23;;;;;;;34.83;26.55;;;8.30;99.90;;;;;;5042515;28;20115;-87
2022/03/16 08:51:48;;;;;;;36.10;25.65;;;8.40;99.90;;;;;;5045926;28;20124;-88
2022/03/16 08:54:14;;;;;;;35.55;31.77;;;8.40;99.90;;;;;;5007897;28;20474;-87
2022/03/16 08:56:40;;;;;;;35.97;31.92;;;8.60;99.90;;;;;;5008373;28;20053;-87
2022/03/16 08:59:06;;;;;;;33.58;30.05;;;8.70;99.90;;;;;;5024117;28;20418;-86
2022/03/16 09:01:32;;;;;;;35.95;32.05;;;8.80;99.90;;;;;;5012025;28;20465;-85
2022/03/16 09:03:57;;;;;;;36.10;31.23;;;8.90;99.90;;;;;;5018908;28;20157;-86
2022/03/16 09:06:23;;;;;;;34.20;25.73;;;9.10;99.90;;;;;;5039813;28;20057;-87
2022/03/16 09:08:49;;;;;;;34.40;30.70;;;9.10;99.90;;;;;;5011053;28;20229;-85
2022/03/16 09:11:14;;;;;;;34.70;30.05;;;9.30;99.90;;;;;;5039072;28;20039;-86
2022/03/16 09:13:40;;;;;;;33.92;27.83;;;9.40;99.90;;;;;;5071081;28;20048;-86
2022/03/16 09:16:06;;;;;;;31.00;26.98;;;9.60;99.90;;;;;;5019059;28;20056;-86
2022/03/16 09:18:32;;;;;;;31.13;27.13;;;9.70;99.90;;;;;;5033829;28;20428;-86
2022/03/16 09:21:00;;;;;;;31.40;27.95;;;9.80;99.90;;;;;;5010075;28;20235;-87
2022/03/16 09:23:31;;;;;;;29.23;24.67;;;9.80;99.90;;;;;;5015363;28;20539;-87
2022/03/16 09:26:01;;;;;;;27.52;23.63;;;10.00;99.90;;;;;;5008751;28;20044;-86
2022/03/16 09:28:28;;;;;;;28.83;22.92;;;10.10;99.90;;;;;;5030885;28;20041;-85
2022/03/16 09:30:54;;;;;;;25.80;21.77;;;10.20;99.90;;;;;;5010455;28;20081;-86
2022/03/16 09:33:23;;;;;;;24.90;21.45;;;10.20;99.90;;;;;;5025517;28;20076;-86
2022/03/16 09:35:50;;;;;;;24.55;21.75;;;10.30;99.90;;;;;;5045697;28;20048;-86
2022/03/16 09:38:16;;;;;;;25.20;20.92;;;10.40;99.90;;;;;;5009684;28;20057;-86
2022/03/16 09:40:42;;;;;;;24.17;20.17;;;10.50;99.90;;;;;;5014451;28;20038;-85
2022/03/16 09:43:10;;;;;;;23.23;19.27;;;10.60;99.90;;;;;;5041760;28;20085;-84
2022/03/16 09:45:58;;;;;;;22.63;17.83;;;10.70;99.90;;;;;;5035593;28;20046;-85
2022/03/16 09:48:24;;;;;;;21.05;17.60;;;10.80;99.90;;;;;;5011641;28;20047;-85
2022/03/16 09:50:53;;;;;;;21.98;17.85;;;10.90;99.90;;;;;;5011723;28;20125;-85
2022/03/16 09:53:21;;;;;;;19.27;16.08;;;10.90;99.90;;;;;;5005395;28;20506;-86
2022/03/16 09:55:46;;;;;;;21.55;17.83;;;11.00;99.90;;;;;;5007648;28;20049;-84
2022/03/16 09:58:12;;;;;;;21.98;17.95;;;11.10;99.90;;;;;;5041356;28;20124;-86
2022/03/16 10:00:38;;;;;;;22.17;17.42;;;11.30;99.90;;;;;;5007220;28;20533;-86
2022/03/16 10:03:04;;;;;;;21.00;17.58;;;11.40;99.90;;;;;;5020181;28;20122;-85
2022/03/16 10:05:31;;;;;;;22.90;17.77;;;11.50;99.90;;;;;;5079654;28;20046;-84
2022/03/16 10:08:05;;;;;;;20.83;16.40;;;11.60;99.90;;;;;;5089923;28;20053;-87
2022/03/16 10:13:23;;;;;;;20.70;17.02;;;11.80;99.90;;;;;;5010555;28;20041;-86
2022/03/16 10:15:52;;;;;;;20.38;16.92;;;11.80;99.90;;;;;;5030259;28;20104;-85
2022/03/16 10:18:25;;;;;;;20.85;16.58;;;11.80;99.90;;;;;;5022375;28;20045;-85
2022/03/16 10:20:52;;;;;;;20.38;17.15;;;11.90;99.90;;;;;;5085723;28;20856;-85
2022/03/16 10:23:28;;;;;;;19.95;16.35;;;12.00;99.90;;;;;;5033451;28;20046;-86
2022/03/16 10:25:58;;;;;;;23.23;17.27;;;12.00;99.90;;;;;;5078331;28;20051;-85
2022/03/16 10:28:24;;;;;;;22.35;17.60;;;12.00;99.90;;;;;;5017657;28;20125;-87
2022/03/16 10:30:57;;;;;;;22.05;17.42;;;12.10;99.90;;;;;;5031670;28;20510;-86
2022/03/16 10:33:26;;;;;;;25.02;17.35;;;12.10;99.90;;;;;;5007935;28;20624;-85
2022/03/16 10:36:03;;;;;;;21.95;16.80;;;12.10;99.90;;;;;;5008936;28;20065;-84
2022/03/16 10:38:39;;;;;;;20.75;17.33;;;12.20;99.90;;;;;;5067519;28;20049;-86
2022/03/16 10:47:19;;;;;;;21.50;15.73;;;12.50;99.90;;;;;;5005435;28;20058;-85
2022/03/16 10:49:46;;;;;;;21.48;16.25;;;12.60;99.90;;;;;;4992980;28;20048;-86
2022/03/16 10:52:19;;;;;;;22.08;16.77;;;12.70;99.90;;;;;;5013026;28;20514;-86
2022/03/16 10:54:47;;;;;;;19.95;15.38;;;12.80;99.90;;;;;;5028761;28;20084;-85
2022/03/16 10:57:13;;;;;;;20.25;15.82;;;12.90;99.90;;;;;;5087537;28;20133;-85
2022/03/16 10:59:42;;;;;;;21.13;16.25;;;13.00;99.90;;;;;;5009938;28;20504;-85
2022/03/16 11:02:12;;;;;;;22.27;16.70;;;13.10;99.90;;;;;;5090389;28;20083;-85
2022/03/16 11:04:39;;;;;;;19.58;15.85;;;13.20;99.90;;;;;;5100814;28;20081;-85
2022/03/16 11:07:06;;;;;;;19.90;15.18;;;13.20;99.90;;;;;;5034946;28;20524;-84
2022/03/16 11:09:33;;;;;;;18.17;15.02;;;13.30;99.90;;;;;;5063739;28;20040;-84
2022/03/16 11:14:47;;;;;;;17.70;13.25;;;13.50;99.90;;;;;;5011372;28;20060;-84
2022/03/16 11:17:13;;;;;;;16.58;13.15;;;13.60;99.90;;;;;;5007022;28;20568;-85
2022/03/16 11:19:47;;;;;;;17.10;12.90;;;13.60;97.70;;;;;;5013811;28;20446;-86
2022/03/16 11:22:25;;;;;;;17.45;12.68;;;13.70;95.20;;;;;;5009572;28;20054;-85
2022/03/16 11:25:05;;;;;;;17.95;12.38;;;13.70;92.20;;;;;;5005271;28;20065;-83
2022/03/16 11:27:40;;;;;;;16.92;12.10;;;13.70;91.10;;;;;;4996996;28;20280;-85
2022/03/16 11:30:28;;;;;;;17.15;12.85;;;13.70;91.00;;;;;;5012678;28;20077;-85
2022/03/16 11:33:04;;;;;;;17.25;12.75;;;13.70;88.40;;;;;;5028629;28;20064;-85
2022/03/16 11:35:33;;;;;;;17.83;12.55;;;13.80;88.80;;;;;;5005868;28;20089;-86
2022/03/16 11:38:10;;;;;;;16.75;12.38;;;13.80;88.80;;;;;;5053514;28;20406;-86
2022/03/16 11:40:45;;;;;;;18.00;13.27;;;13.80;88.00;;;;;;5003860;28;20053;-85
2022/03/16 11:43:17;;;;;;;17.40;13.00;;;13.90;85.50;;;;;;5007048;28;20038;-85
2022/03/16 11:45:43;;;;;;;17.52;12.45;;;13.90;83.80;;;;;;5010049;28;20076;-85
2022/03/16 11:48:28;;;;;;;17.10;12.52;;;13.90;81.70;;;;;;5008958;28;20042;-86
2022/03/16 11:51:09;;;;;;;17.73;13.43;;;14.00;81.90;;;;;;5008831;28;20285;-84
2022/03/16 11:56:36;;;;;;;18.85;14.25;;;14.00;80.80;;;;;;5012699;28;20141;-85
2022/03/16 11:59:17;;;;;;;19.42;13.93;;;14.00;76.10;;;;;;5031914;28;20095;-84
2022/03/16 12:01:52;;;;;;;19.60;14.77;;;14.10;80.70;;;;;;5026978;27;20144;-85
2022/03/16 12:04:35;;;;;;;19.88;15.00;;;14.00;80.40;;;;;;5013529;28;20057;-84
2022/03/16 12:07:12;;;;;;;21.17;14.35;;;14.10;79.70;;;;;;5011317;28;20122;-84
2022/03/16 12:10:03;;;;;;;19.38;14.73;;;14.10;80.20;;;;;;5011536;28;20474;-85
2022/03/16 12:15:32;;;;;;;19.73;14.65;;;14.10;78.00;;;;;;5043716;28;20061;-84
2022/03/16 12:17:57;;;;;;;18.52;14.40;;;14.20;77.80;;;;;;5030572;28;20050;-85
2022/03/16 12:20:25;;;;;;;18.65;13.85;;;14.20;78.60;;;;;;5041967;28;20048;-84
2022/03/16 12:22:56;;;;;;;20.50;14.68;;;14.30;78.00;;;;;;5101077;28;20055;-84
2022/03/16 12:25:28;;;;;;;19.38;15.27;;;14.30;76.20;;;;;;5056833;28;20050;-84
2022/03/16 12:31:10;;;;;;;19.75;14.90;;;14.30;71.10;;;;;;5007749;28;20049;-84
2022/03/16 12:33:39;;;;;;;20.20;15.55;;;14.40;76.20;;;;;;5004729;28;20452;-84
2022/03/16 12:36:11;;;;;;;19.20;15.05;;;14.50;76.70;;;;;;5005820;28;20054;-84
2022/03/16 12:38:58;;;;;;;19.10;15.15;;;14.50;75.60;;;;;;5065036;28;20085;-86
2022/03/16 12:44:15;;;;;;;21.20;16.02;;;14.60;75.20;;;;;;5062872;28;20066;-86
2022/03/16 12:46:52;;;;;;;17.48;13.85;;;14.60;74.80;;;;;;5005974;28;20073;-83
2022/03/16 12:49:21;;;;;;;17.67;13.15;;;14.70;72.90;;;;;;5061415;28;20218;-83
2022/03/16 12:51:52;;;;;;;18.58;12.88;;;14.70;71.30;;;;;;5005859;28;20038;-85
2022/03/16 12:54:21;;;;;;;17.92;13.07;;;14.80;70.70;;;;;;5100513;28;20044;-84
2022/03/16 12:56:51;;;;;;;18.52;13.50;;;14.80;70.60;;;;;;5006050;28;20054;-84
2022/03/16 12:59:29;;;;;;;17.87;13.97;;;14.80;70.10;;;;;;5039310;28;20042;-83